sensor_id;sensor_type;location;lat;lon;timestamp;temperature;humidity
39371;DHT22;25099;51.946;4.838;2022-09-01T00:01:56;15.90;99.90
39371;DHT22;25099;51.946;4.838;2022-09-01T00:04:23;15.90;99.90
39371;DHT22;25099;51.946;4.838;2022-09-01T00:06:52;15.90;99.90
39371;DHT22;25099;51.946;4.838;2022-09-01T00:09:20;15.90;99.90
39371;DHT22;25099;51.946;4.838;2022-09-01T00:11:50;15.80;99.90
39371;DHT22;25099;51.946;4.838;2022-09-01T00:14:22;15.80;99.90
39371;DHT22;25099;51.946;4.838;2022-09-01T00:16:49;15.70;99.90
39371;DHT22;25099;51.946;4.838;2022-09-01T00:19:14;15.80;99.90
39371;DHT22;25099;51.946;4.838;2022-09-01T00:21:42;15.70;99.90
39371;DHT22;25099;51.946;4.838;2022-09-01T00:24:10;15.60;99.90
39371;DHT22;25099;51.946;4.838;2022-09-01T00:26:37;15.60;99.90
39371;DHT22;25099;51.946;4.838;2022-09-01T00:29:03;15.60;99.90
39371;DHT22;25099;51.946;4.838;2022-09-01T00:31:29;15.60;99.90
39371;DHT22;25099;51.946;4.838;2022-09-01T00:33:54;15.60;99.90
39371;DHT22;25099;51.946;4.838;2022-09-01T00:36:20;15.60;99.90
39371;DHT22;25099;51.946;4.838;2022-09-01T00:38:47;15.50;99.90
39371;DHT22;25099;51.946;4.838;2022-09-01T00:41:13;15.50;99.90
39371;DHT22;25099;51.946;4.838;2022-09-01T00:46:11;15.40;99.90
39371;DHT22;25099;51.946;4.838;2022-09-01T00:48:38;15.40;99.90
39371;DHT22;25099;51.946;4.838;2022-09-01T00:51:05;15.40;99.90
39371;DHT22;25099;51.946;4.838;2022-09-01T00:53:35;15.30;99.90
39371;DHT22;25099;51.946;4.838;2022-09-01T00:56:02;15.30;99.90
39371;DHT22;25099;51.946;4.838;2022-09-01T00:58:29;15.20;99.90
39371;DHT22;25099;51.946;4.838;2022-09-01T01:00:55;15.10;99.90
39371;DHT22;25099;51.946;4.838;2022-09-01T01:03:20;15.20;99.90
39371;DHT22;25099;51.946;4.838;2022-09-01T01:05:51;15.10;99.90
39371;DHT22;25099;51.946;4.838;2022-09-01T01:08:39;15.20;99.90
39371;DHT22;25099;51.946;4.838;2022-09-01T01:11:12;15.10;99.90
39371;DHT22;25099;51.946;4.838;2022-09-01T01:13:58;15.10;99.90
39371;DHT22;25099;51.946;4.838;2022-09-01T01:16:26;15.10;99.90
39371;DHT22;25099;51.946;4.838;2022-09-01T01:18:51;15.00;99.90
39371;DHT22;25099;51.946;4.838;2022-09-01T01:21:21;15.00;99.90
39371;DHT22;25099;51.946;4.838;2022-09-01T01:26:48;14.90;99.90
39371;DHT22;25099;51.946;4.838;2022-09-01T01:29:14;14.90;99.90
39371;DHT22;25099;51.946;4.838;2022-09-01T01:31:40;14.90;99.90
39371;DHT22;25099;51.946;4.838;2022-09-01T01:34:06;14.80;99.90
39371;DHT22;25099;51.946;4.838;2022-09-01T01:36:35;14.80;99.90
39371;DHT22;25099;51.946;4.838;2022-09-01T01:41:31;14.80;99.90
39371;DHT22;25099;51.946;4.838;2022-09-01T01:43:59;14.80;99.90
39371;DHT22;25099;51.946;4.838;2022-09-01T01:46:26;14.80;99.90
39371;DHT22;25099;51.946;4.838;2022-09-01T01:48:52;14.80;99.90
39371;DHT22;25099;51.946;4.838;2022-09-01T01:51:19;14.70;99.90
39371;DHT22;25099;51.946;4.838;2022-09-01T01:53:46;14.60;99.90
39371;DHT22;25099;51.946;4.838;2022-09-01T01:56:12;14.70;99.90
39371;DHT22;25099;51.946;4.838;2022-09-01T01:58:38;14.70;99.90
39371;DHT22;25099;51.946;4.838;2022-09-01T02:01:05;14.60;99.90
39371;DHT22;25099;51.946;4.838;2022-09-01T02:03:35;14.60;99.90
39371;DHT22;25099;51.946;4.838;2022-09-01T02:06:04;14.60;99.90
39371;DHT22;25099;51.946;4.838;2022-09-01T02:08:32;14.50;99.90
39371;DHT22;25099;51.946;4.838;2022-09-01T02:10:58;14.50;99.90
39371;DHT22;25099;51.946;4.838;2022-09-01T02:13:25;14.50;99.90
39371;DHT22;25099;51.946;4.838;2022-09-01T02:15:56;14.50;99.90
39371;DHT22;25099;51.946;4.838;2022-09-01T02:18:29;14.40;99.90
39371;DHT22;25099;51.946;4.838;2022-09-01T02:20:58;14.40;99.90
39371;DHT22;25099;51.946;4.838;2022-09-01T02:23:26;14.50;99.90
39371;DHT22;25099;51.946;4.838;2022-09-01T02:25:54;14.40;99.90
39371;DHT22;25099;51.946;4.838;2022-09-01T02:28:21;14.40;99.90
39371;DHT22;25099;51.946;4.838;2022-09-01T02:30:51;14.40;99.90
39371;DHT22;25099;51.946;4.838;2022-09-01T02:33:21;14.40;99.90
39371;DHT22;25099;51.946;4.838;2022-09-01T02:35:58;14.30;99.90
39371;DHT22;25099;51.946;4.838;2022-09-01T02:38:25;14.40;99.90
39371;DHT22;25099;51.946;4.838;2022-09-01T02:40:55;14.40;99.90
39371;DHT22;25099;51.946;4.838;2022-09-01T02:43:21;14.40;99.90
39371;DHT22;25099;51.946;4.838;2022-09-01T02:45:48;14.50;99.90
39371;DHT22;25099;51.946;4.838;2022-09-01T02:48:19;14.50;99.90
39371;DHT22;25099;51.946;4.838;2022-09-01T02:50:48;14.50;99.90
39371;DHT22;25099;51.946;4.838;2022-09-01T02:53:14;14.60;99.90
39371;DHT22;25099;51.946;4.838;2022-09-01T02:55:41;14.60;99.90
39371;DHT22;25099;51.946;4.838;2022-09-01T02:58:08;14.60;99.90
39371;DHT22;25099;51.946;4.838;2022-09-01T03:00:41;14.50;99.90
39371;DHT22;25099;51.946;4.838;2022-09-01T03:03:09;14.50;99.90
39371;DHT22;25099;51.946;4.838;2022-09-01T03:05:37;14.40;99.90
39371;DHT22;25099;51.946;4.838;2022-09-01T03:08:06;14.40;99.90
39371;DHT22;25099;51.946;4.838;2022-09-01T03:10:35;14.40;99.90
39371;DHT22;25099;51.946;4.838;2022-09-01T03:13:10;14.40;99.90
39371;DHT22;25099;51.946;4.838;2022-09-01T03:15:37;14.40;99.90
39371;DHT22;25099;51.946;4.838;2022-09-01T03:18:04;14.30;99.90
39371;DHT22;25099;51.946;4.838;2022-09-01T03:20:31;14.30;99.90
39371;DHT22;25099;51.946;4.838;2022-09-01T03:22:59;14.30;99.90
39371;DHT22;25099;51.946;4.838;2022-09-01T03:25:25;14.20;99.90
39371;DHT22;25099;51.946;4.838;2022-09-01T03:27:52;14.20;99.90
39371;DHT22;25099;51.946;4.838;2022-09-01T03:30:18;14.20;99.90
39371;DHT22;25099;51.946;4.838;2022-09-01T03:32:44;14.20;99.90
39371;DHT22;25099;51.946;4.838;2022-09-01T03:35:11;14.10;99.90
39371;DHT22;25099;51.946;4.838;2022-09-01T03:37:40;14.10;99.90
39371;DHT22;25099;51.946;4.838;2022-09-01T03:40:10;14.10;99.90
39371;DHT22;25099;51.946;4.838;2022-09-01T03:42:36;14.10;99.90
39371;DHT22;25099;51.946;4.838;2022-09-01T03:45:05;14.00;99.90
39371;DHT22;25099;51.946;4.838;2022-09-01T03:47:34;14.10;99.90
39371;DHT22;25099;51.946;4.838;2022-09-01T03:50:15;14.10;99.90
39371;DHT22;25099;51.946;4.838;2022-09-01T03:52:48;14.10;99.90
39371;DHT22;25099;51.946;4.838;2022-09-01T03:55:17;14.10;99.90
39371;DHT22;25099;51.946;4.838;2022-09-01T03:57:49;14.10;99.90
39371;DHT22;25099;51.946;4.838;2022-09-01T04:00:15;14.00;99.90
39371;DHT22;25099;51.946;4.838;2022-09-01T04:02:47;14.00;99.90
39371;DHT22;25099;51.946;4.838;2022-09-01T04:05:17;14.00;99.90
39371;DHT22;25099;51.946;4.838;2022-09-01T04:07:50;14.00;99.90
39371;DHT22;25099;51.946;4.838;2022-09-01T04:10:17;14.00;99.90
39371;DHT22;25099;51.946;4.838;2022-09-01T04:12:44;14.00;99.90
39371;DHT22;25099;51.946;4.838;2022-09-01T04:15:12;13.90;99.90
39371;DHT22;25099;51.946;4.838;2022-09-01T04:17:38;13.90;99.90
39371;DHT22;25099;51.946;4.838;2022-09-01T04:20:22;13.90;99.90
39371;DHT22;25099;51.946;4.838;2022-09-01T04:22:49;13.90;99.90
39371;DHT22;25099;51.946;4.838;2022-09-01T04:25:16;13.90;99.90
39371;DHT22;25099;51.946;4.838;2022-09-01T04:27:42;13.80;99.90
39371;DHT22;25099;51.946;4.838;2022-09-01T04:30:09;13.80;99.90
39371;DHT22;25099;51.946;4.838;2022-09-01T04:32:36;13.80;99.90
39371;DHT22;25099;51.946;4.838;2022-09-01T04:35:03;13.70;99.90
39371;DHT22;25099;51.946;4.838;2022-09-01T04:37:29;13.70;99.90
39371;DHT22;25099;51.946;4.838;2022-09-01T04:39:55;13.70;99.90
39371;DHT22;25099;51.946;4.838;2022-09-01T04:42:22;13.70;99.90
39371;DHT22;25099;51.946;4.838;2022-09-01T04:44:49;13.70;99.90
39371;DHT22;25099;51.946;4.838;2022-09-01T04:47:15;13.70;99.90
39371;DHT22;25099;51.946;4.838;2022-09-01T04:49:47;13.70;99.90
39371;DHT22;25099;51.946;4.838;2022-09-01T04:52:13;13.70;99.90
39371;DHT22;25099;51.946;4.838;2022-09-01T04:54:39;13.70;99.90
39371;DHT22;25099;51.946;4.838;2022-09-01T04:57:05;13.70;99.90
39371;DHT22;25099;51.946;4.838;2022-09-01T04:59:31;13.70;99.90
39371;DHT22;25099;51.946;4.838;2022-09-01T05:01:59;13.70;99.90
39371;DHT22;25099;51.946;4.838;2022-09-01T05:04:29;13.70;99.90
39371;DHT22;25099;51.946;4.838;2022-09-01T05:06:59;13.70;99.90
39371;DHT22;25099;51.946;4.838;2022-09-01T05:09:31;13.80;99.90
39371;DHT22;25099;51.946;4.838;2022-09-01T05:12:00;13.70;99.90
39371;DHT22;25099;51.946;4.838;2022-09-01T05:14:39;13.80;99.90
39371;DHT22;25099;51.946;4.838;2022-09-01T05:17:08;13.80;99.90
39371;DHT22;25099;51.946;4.838;2022-09-01T05:19:40;13.80;99.90
39371;DHT22;25099;51.946;4.838;2022-09-01T05:22:07;13.80;99.90
39371;DHT22;25099;51.946;4.838;2022-09-01T05:24:35;13.80;99.90
39371;DHT22;25099;51.946;4.838;2022-09-01T05:27:01;13.90;99.90
39371;DHT22;25099;51.946;4.838;2022-09-01T05:29:30;13.90;99.90
39371;DHT22;25099;51.946;4.838;2022-09-01T05:31:56;13.90;99.90
39371;DHT22;25099;51.946;4.838;2022-09-01T05:34:23;14.00;99.90
39371;DHT22;25099;51.946;4.838;2022-09-01T05:36:56;14.00;99.90
39371;DHT22;25099;51.946;4.838;2022-09-01T05:39:22;14.00;99.90
39371;DHT22;25099;51.946;4.838;2022-09-01T05:41:49;14.00;99.90
39371;DHT22;25099;51.946;4.838;2022-09-01T05:44:15;14.00;99.90
39371;DHT22;25099;51.946;4.838;2022-09-01T05:46:41;14.10;99.90
39371;DHT22;25099;51.946;4.838;2022-09-01T05:49:09;14.10;99.90
39371;DHT22;25099;51.946;4.838;2022-09-01T05:51:40;14.20;99.90
39371;DHT22;25099;51.946;4.838;2022-09-01T05:54:07;14.30;99.90
39371;DHT22;25099;51.946;4.838;2022-09-01T05:56:35;14.30;99.90
39371;DHT22;25099;51.946;4.838;2022-09-01T05:59:04;14.40;99.90
39371;DHT22;25099;51.946;4.838;2022-09-01T06:01:29;14.40;99.90
39371;DHT22;25099;51.946;4.838;2022-09-01T06:03:57;14.50;99.90
39371;DHT22;25099;51.946;4.838;2022-09-01T06:06:26;14.50;99.90
39371;DHT22;25099;51.946;4.838;2022-09-01T06:08:53;14.60;99.90
39371;DHT22;25099;51.946;4.838;2022-09-01T06:11:25;14.70;99.90
39371;DHT22;25099;51.946;4.838;2022-09-01T06:13:52;14.80;99.90
39371;DHT22;25099;51.946;4.838;2022-09-01T06:16:22;14.90;99.90
39371;DHT22;25099;51.946;4.838;2022-09-01T06:18:49;14.90;99.90
39371;DHT22;25099;51.946;4.838;2022-09-01T06:21:17;15.00;99.90
39371;DHT22;25099;51.946;4.838;2022-09-01T06:23:43;15.00;99.90
39371;DHT22;25099;51.946;4.838;2022-09-01T06:26:30;15.10;99.90
39371;DHT22;25099;51.946;4.838;2022-09-01T06:28:58;15.20;99.90
39371;DHT22;25099;51.946;4.838;2022-09-01T06:31:27;15.20;99.90
39371;DHT22;25099;51.946;4.838;2022-09-01T06:34:02;15.30;99.90
39371;DHT22;25099;51.946;4.838;2022-09-01T06:36:29;15.40;99.90
39371;DHT22;25099;51.946;4.838;2022-09-01T06:38:57;15.40;99.90
39371;DHT22;25099;51.946;4.838;2022-09-01T06:41:25;15.50;99.90
39371;DHT22;25099;51.946;4.838;2022-09-01T06:43:51;15.60;99.90
39371;DHT22;25099;51.946;4.838;2022-09-01T06:46:19;15.60;99.90
39371;DHT22;25099;51.946;4.838;2022-09-01T06:48:46;15.70;99.90
39371;DHT22;25099;51.946;4.838;2022-09-01T06:51:20;15.80;99.90
39371;DHT22;25099;51.946;4.838;2022-09-01T06:53:48;15.80;99.90
39371;DHT22;25099;51.946;4.838;2022-09-01T06:56:21;16.00;99.90
39371;DHT22;25099;51.946;4.838;2022-09-01T06:58:51;16.00;99.90
39371;DHT22;25099;51.946;4.838;2022-09-01T07:01:19;16.10;99.90
39371;DHT22;25099;51.946;4.838;2022-09-01T07:03:48;16.20;99.90
39371;DHT22;25099;51.946;4.838;2022-09-01T07:06:16;16.20;99.90
39371;DHT22;25099;51.946;4.838;2022-09-01T07:08:42;16.30;99.90
39371;DHT22;25099;51.946;4.838;2022-09-01T07:11:18;16.40;99.90
39371;DHT22;25099;51.946;4.838;2022-09-01T07:13:53;16.50;99.90
39371;DHT22;25099;51.946;4.838;2022-09-01T07:16:21;16.50;99.90
39371;DHT22;25099;51.946;4.838;2022-09-01T07:18:51;16.60;99.90
39371;DHT22;25099;51.946;4.838;2022-09-01T07:21:18;16.70;99.90
39371;DHT22;25099;51.946;4.838;2022-09-01T07:23:44;16.80;99.90
39371;DHT22;25099;51.946;4.838;2022-09-01T07:26:10;16.80;99.90
39371;DHT22;25099;51.946;4.838;2022-09-01T07:28:38;16.90;99.90
39371;DHT22;25099;51.946;4.838;2022-09-01T07:31:04;17.00;99.90
39371;DHT22;25099;51.946;4.838;2022-09-01T07:33:31;17.00;99.90
39371;DHT22;25099;51.946;4.838;2022-09-01T07:35:58;17.10;99.90
39371;DHT22;25099;51.946;4.838;2022-09-01T07:38:24;17.10;99.90
39371;DHT22;25099;51.946;4.838;2022-09-01T07:40:50;17.20;99.90
39371;DHT22;25099;51.946;4.838;2022-09-01T07:43:23;17.20;99.90
39371;DHT22;25099;51.946;4.838;2022-09-01T07:45:53;17.30;99.90
39371;DHT22;25099;51.946;4.838;2022-09-01T07:48:21;17.40;99.90
39371;DHT22;25099;51.946;4.838;2022-09-01T07:50:50;17.50;99.90
39371;DHT22;25099;51.946;4.838;2022-09-01T07:53:19;17.50;99.90
39371;DHT22;25099;51.946;4.838;2022-09-01T07:55:52;17.60;99.90
39371;DHT22;25099;51.946;4.838;2022-09-01T07:58:22;17.70;99.90
39371;DHT22;25099;51.946;4.838;2022-09-01T08:00:53;17.70;99.90
39371;DHT22;25099;51.946;4.838;2022-09-01T08:03:21;17.80;99.90
39371;DHT22;25099;51.946;4.838;2022-09-01T08:05:48;17.90;99.90
39371;DHT22;25099;51.946;4.838;2022-09-01T08:08:18;18.00;99.90
39371;DHT22;25099;51.946;4.838;2022-09-01T08:10:44;18.10;99.90
39371;DHT22;25099;51.946;4.838;2022-09-01T08:13:11;18.10;99.90
39371;DHT22;25099;51.946;4.838;2022-09-01T08:15:40;18.20;99.90
39371;DHT22;25099;51.946;4.838;2022-09-01T08:18:06;18.30;99.90
39371;DHT22;25099;51.946;4.838;2022-09-01T08:20:32;18.40;99.90
39371;DHT22;25099;51.946;4.838;2022-09-01T08:23:04;18.50;99.90
39371;DHT22;25099;51.946;4.838;2022-09-01T08:25:31;18.50;99.90
39371;DHT22;25099;51.946;4.838;2022-09-01T08:27:57;18.60;99.90
39371;DHT22;25099;51.946;4.838;2022-09-01T08:30:23;18.70;99.90
39371;DHT22;25099;51.946;4.838;2022-09-01T08:32:49;18.70;99.90
39371;DHT22;25099;51.946;4.838;2022-09-01T08:35:15;18.80;99.90
39371;DHT22;25099;51.946;4.838;2022-09-01T08:37:41;18.90;99.90
39371;DHT22;25099;51.946;4.838;2022-09-01T08:40:11;19.00;99.90
39371;DHT22;25099;51.946;4.838;2022-09-01T08:45:56;19.20;99.90
39371;DHT22;25099;51.946;4.838;2022-09-01T08:48:30;19.30;99.90
39371;DHT22;25099;51.946;4.838;2022-09-01T08:51:04;19.40;99.90
39371;DHT22;25099;51.946;4.838;2022-09-01T08:53:39;19.40;99.90
39371;DHT22;25099;51.946;4.838;2022-09-01T08:56:08;19.50;99.90
39371;DHT22;25099;51.946;4.838;2022-09-01T08:58:35;19.60;99.90
39371;DHT22;25099;51.946;4.838;2022-09-01T09:01:06;19.60;99.90
39371;DHT22;25099;51.946;4.838;2022-09-01T09:04:01;19.80;99.90
39371;DHT22;25099;51.946;4.838;2022-09-01T09:06:40;19.80;99.90
39371;DHT22;25099;51.946;4.838;2022-09-01T09:09:08;19.90;99.90
39371;DHT22;25099;51.946;4.838;2022-09-01T09:12:20;20.10;99.90
39371;DHT22;25099;51.946;4.838;2022-09-01T09:14:55;20.10;99.60
39371;DHT22;25099;51.946;4.838;2022-09-01T09:17:29;20.30;99.30
39371;DHT22;25099;51.946;4.838;2022-09-01T09:19:59;20.30;98.90
39371;DHT22;25099;51.946;4.838;2022-09-01T09:22:25;20.30;98.90
39371;DHT22;25099;51.946;4.838;2022-09-01T09:25:08;20.40;98.30
39371;DHT22;25099;51.946;4.838;2022-09-01T09:27:37;20.50;98.50
39371;DHT22;25099;51.946;4.838;2022-09-01T09:30:09;20.60;98.10
39371;DHT22;25099;51.946;4.838;2022-09-01T09:32:57;20.60;97.90
39371;DHT22;25099;51.946;4.838;2022-09-01T09:38:16;20.70;97.60
39371;DHT22;25099;51.946;4.838;2022-09-01T09:41:05;20.80;97.20
39371;DHT22;25099;51.946;4.838;2022-09-01T09:43:35;20.90;96.90
39371;DHT22;25099;51.946;4.838;2022-09-01T09:46:40;20.90;96.80
39371;DHT22;25099;51.946;4.838;2022-09-01T09:49:20;21.00;96.90
39371;DHT22;25099;51.946;4.838;2022-09-01T09:51:57;21.10;96.80
39371;DHT22;25099;51.946;4.838;2022-09-01T09:54:58;21.20;96.80
39371;DHT22;25099;51.946;4.838;2022-09-01T09:57:25;21.20;96.50
39371;DHT22;25099;51.946;4.838;2022-09-01T10:00:00;21.30;96.20
39371;DHT22;25099;51.946;4.838;2022-09-01T10:02:40;21.40;96.20
39371;DHT22;25099;51.946;4.838;2022-09-01T10:07:43;21.50;96.10
39371;DHT22;25099;51.946;4.838;2022-09-01T10:12:52;21.60;95.50
39371;DHT22;25099;51.946;4.838;2022-09-01T10:15:22;21.70;95.10
39371;DHT22;25099;51.946;4.838;2022-09-01T10:17:52;21.80;95.00
39371;DHT22;25099;51.946;4.838;2022-09-01T10:20:23;21.80;95.00
39371;DHT22;25099;51.946;4.838;2022-09-01T10:22:49;21.90;94.60
39371;DHT22;25099;51.946;4.838;2022-09-01T10:25:25;22.00;94.30
39371;DHT22;25099;51.946;4.838;2022-09-01T10:27:57;22.00;94.20
39371;DHT22;25099;51.946;4.838;2022-09-01T10:30:24;22.00;94.00
39371;DHT22;25099;51.946;4.838;2022-09-01T10:32:53;22.10;93.80
39371;DHT22;25099;51.946;4.838;2022-09-01T10:35:34;22.30;93.40
39371;DHT22;25099;51.946;4.838;2022-09-01T10:38:07;22.30;93.50
39371;DHT22;25099;51.946;4.838;2022-09-01T10:40:37;22.30;93.50
39371;DHT22;25099;51.946;4.838;2022-09-01T10:43:28;22.40;93.50
39371;DHT22;25099;51.946;4.838;2022-09-01T10:45:54;22.40;93.20
39371;DHT22;25099;51.946;4.838;2022-09-01T10:50:47;22.40;93.00
39371;DHT22;25099;51.946;4.838;2022-09-01T11:04:12;22.60;91.60
39371;DHT22;25099;51.946;4.838;2022-09-01T11:09:18;22.60;91.90
39371;DHT22;25099;51.946;4.838;2022-09-01T11:11:59;22.60;91.90
39371;DHT22;25099;51.946;4.838;2022-09-01T11:14:28;22.70;92.20
39371;DHT22;25099;51.946;4.838;2022-09-01T11:19:56;22.80;91.20
39371;DHT22;25099;51.946;4.838;2022-09-01T11:22:42;22.90;90.80
39371;DHT22;25099;51.946;4.838;2022-09-01T11:28:03;22.90;90.50
39371;DHT22;25099;51.946;4.838;2022-09-01T11:36:03;23.10;90.00
39371;DHT22;25099;51.946;4.838;2022-09-01T11:38:37;23.20;89.90
39371;DHT22;25099;51.946;4.838;2022-09-01T11:41:07;23.20;88.60
39371;DHT22;25099;51.946;4.838;2022-09-01T11:43:34;23.40;88.10
39371;DHT22;25099;51.946;4.838;2022-09-01T11:46:17;23.40;88.00
39371;DHT22;25099;51.946;4.838;2022-09-01T11:48:47;23.50;88.60
39371;DHT22;25099;51.946;4.838;2022-09-01T11:51:14;23.50;88.00
39371;DHT22;25099;51.946;4.838;2022-09-01T11:53:41;23.60;88.70
39371;DHT22;25099;51.946;4.838;2022-09-01T11:56:18;23.50;87.00
39371;DHT22;25099;51.946;4.838;2022-09-01T11:58:45;23.60;86.40
39371;DHT22;25099;51.946;4.838;2022-09-01T12:03:48;23.60;85.70
39371;DHT22;25099;51.946;4.838;2022-09-01T12:06:20;23.70;85.30
39371;DHT22;25099;51.946;4.838;2022-09-01T12:08:53;23.70;84.90
39371;DHT22;25099;51.946;4.838;2022-09-01T12:11:22;23.70;85.60
39371;DHT22;25099;51.946;4.838;2022-09-01T12:14:10;23.70;84.90
39371;DHT22;25099;51.946;4.838;2022-09-01T12:16:38;23.80;84.60
39371;DHT22;25099;51.946;4.838;2022-09-01T12:19:06;23.70;84.90
39371;DHT22;25099;51.946;4.838;2022-09-01T12:21:38;23.80;85.40
39371;DHT22;25099;51.946;4.838;2022-09-01T12:24:19;23.90;84.50
39371;DHT22;25099;51.946;4.838;2022-09-01T12:26:46;24.10;84.80
39371;DHT22;25099;51.946;4.838;2022-09-01T12:29:13;24.10;83.80
39371;DHT22;25099;51.946;4.838;2022-09-01T12:31:41;24.20;83.80
39371;DHT22;25099;51.946;4.838;2022-09-01T12:37:05;24.30;82.90
39371;DHT22;25099;51.946;4.838;2022-09-01T12:39:42;24.40;81.70
39371;DHT22;25099;51.946;4.838;2022-09-01T12:42:24;24.50;81.70
39371;DHT22;25099;51.946;4.838;2022-09-01T12:44:57;24.50;82.40
39371;DHT22;25099;51.946;4.838;2022-09-01T12:50:04;24.60;81.30
39371;DHT22;25099;51.946;4.838;2022-09-01T12:52:32;24.70;81.80
39371;DHT22;25099;51.946;4.838;2022-09-01T13:00:16;24.80;79.00
39371;DHT22;25099;51.946;4.838;2022-09-01T13:02:49;24.80;79.60
39371;DHT22;25099;51.946;4.838;2022-09-01T13:07:48;25.00;77.20
39371;DHT22;25099;51.946;4.838;2022-09-01T13:10:16;24.90;77.30
39371;DHT22;25099;51.946;4.838;2022-09-01T13:12:43;25.00;77.30
39371;DHT22;25099;51.946;4.838;2022-09-01T13:15:11;25.20;76.60
39371;DHT22;25099;51.946;4.838;2022-09-01T13:17:36;25.30;76.10
39371;DHT22;25099;51.946;4.838;2022-09-01T13:20:06;25.40;77.00
39371;DHT22;25099;51.946;4.838;2022-09-01T13:22:32;25.50;76.60
39371;DHT22;25099;51.946;4.838;2022-09-01T13:24:58;25.50;76.80
39371;DHT22;25099;51.946;4.838;2022-09-01T13:27:24;25.60;75.40
39371;DHT22;25099;51.946;4.838;2022-09-01T13:29:50;25.50;75.10
39371;DHT22;25099;51.946;4.838;2022-09-01T13:32:17;25.50;76.00
39371;DHT22;25099;51.946;4.838;2022-09-01T13:34:43;25.60;75.00
39371;DHT22;25099;51.946;4.838;2022-09-01T13:37:09;25.70;75.30
39371;DHT22;25099;51.946;4.838;2022-09-01T13:39:34;25.90;75.50
39371;DHT22;25099;51.946;4.838;2022-09-01T13:42:00;26.00;74.30
39371;DHT22;25099;51.946;4.838;2022-09-01T13:44:26;26.00;75.20
39371;DHT22;25099;51.946;4.838;2022-09-01T13:46:52;26.20;74.70
39371;DHT22;25099;51.946;4.838;2022-09-01T13:49:19;26.20;73.20
39371;DHT22;25099;51.946;4.838;2022-09-01T13:51:52;26.30;73.80
39371;DHT22;25099;51.946;4.838;2022-09-01T13:54:19;26.40;72.90
39371;DHT22;25099;51.946;4.838;2022-09-01T13:56:45;26.40;72.60
39371;DHT22;25099;51.946;4.838;2022-09-01T13:59:13;26.40;72.90
39371;DHT22;25099;51.946;4.838;2022-09-01T14:01:38;26.40;72.90
39371;DHT22;25099;51.946;4.838;2022-09-01T14:04:06;26.40;72.40
39371;DHT22;25099;51.946;4.838;2022-09-01T14:06:32;26.50;73.30
39371;DHT22;25099;51.946;4.838;2022-09-01T14:09:03;26.50;72.30
39371;DHT22;25099;51.946;4.838;2022-09-01T14:11:29;26.50;72.20
39371;DHT22;25099;51.946;4.838;2022-09-01T14:13:56;26.60;71.90
39371;DHT22;25099;51.946;4.838;2022-09-01T14:16:21;26.60;72.40
39371;DHT22;25099;51.946;4.838;2022-09-01T14:18:47;26.70;71.90
39371;DHT22;25099;51.946;4.838;2022-09-01T14:21:14;26.80;72.00
39371;DHT22;25099;51.946;4.838;2022-09-01T14:23:42;26.90;71.50
39371;DHT22;25099;51.946;4.838;2022-09-01T14:26:12;27.00;71.40
39371;DHT22;25099;51.946;4.838;2022-09-01T14:28:39;27.00;72.00
39371;DHT22;25099;51.946;4.838;2022-09-01T14:31:09;27.00;71.40
39371;DHT22;25099;51.946;4.838;2022-09-01T14:33:35;27.00;71.40
39371;DHT22;25099;51.946;4.838;2022-09-01T14:36:01;27.10;71.90
39371;DHT22;25099;51.946;4.838;2022-09-01T14:38:28;27.20;71.20
39371;DHT22;25099;51.946;4.838;2022-09-01T14:40:53;27.20;71.80
39371;DHT22;25099;51.946;4.838;2022-09-01T14:43:19;27.30;70.90
39371;DHT22;25099;51.946;4.838;2022-09-01T14:45:45;27.40;71.10
39371;DHT22;25099;51.946;4.838;2022-09-01T14:48:17;27.50;70.60
39371;DHT22;25099;51.946;4.838;2022-09-01T14:50:46;27.60;70.60
39371;DHT22;25099;51.946;4.838;2022-09-01T14:53:13;27.60;70.80
39371;DHT22;25099;51.946;4.838;2022-09-01T14:55:39;27.60;70.80
39371;DHT22;25099;51.946;4.838;2022-09-01T14:58:05;27.60;69.70
39371;DHT22;25099;51.946;4.838;2022-09-01T15:00:32;27.60;69.50
39371;DHT22;25099;51.946;4.838;2022-09-01T15:03:00;27.70;69.30
39371;DHT22;25099;51.946;4.838;2022-09-01T15:05:25;27.70;69.90
39371;DHT22;25099;51.946;4.838;2022-09-01T15:07:52;27.80;70.30
39371;DHT22;25099;51.946;4.838;2022-09-01T15:10:21;27.90;68.80
39371;DHT22;25099;51.946;4.838;2022-09-01T15:12:48;27.90;68.90
39371;DHT22;25099;51.946;4.838;2022-09-01T15:15:15;28.00;69.40
39371;DHT22;25099;51.946;4.838;2022-09-01T15:17:40;28.00;69.60
39371;DHT22;25099;51.946;4.838;2022-09-01T15:20:06;28.00;68.50
39371;DHT22;25099;51.946;4.838;2022-09-01T15:22:51;28.10;68.50
39371;DHT22;25099;51.946;4.838;2022-09-01T15:25:16;28.20;67.90
39371;DHT22;25099;51.946;4.838;2022-09-01T15:27:42;28.20;67.90
39371;DHT22;25099;51.946;4.838;2022-09-01T15:30:10;28.20;68.10
39371;DHT22;25099;51.946;4.838;2022-09-01T15:32:43;28.30;67.30
39371;DHT22;25099;51.946;4.838;2022-09-01T15:35:10;28.30;67.60
39371;DHT22;25099;51.946;4.838;2022-09-01T15:37:36;28.40;67.70
39371;DHT22;25099;51.946;4.838;2022-09-01T15:40:03;28.50;67.40
39371;DHT22;25099;51.946;4.838;2022-09-01T15:42:29;28.60;66.30
39371;DHT22;25099;51.946;4.838;2022-09-01T15:44:55;28.70;66.60
39371;DHT22;25099;51.946;4.838;2022-09-01T15:47:21;28.70;66.50
39371;DHT22;25099;51.946;4.838;2022-09-01T15:49:46;28.60;66.40
39371;DHT22;25099;51.946;4.838;2022-09-01T15:52:12;28.60;67.00
39371;DHT22;25099;51.946;4.838;2022-09-01T15:54:38;28.70;67.00
39371;DHT22;25099;51.946;4.838;2022-09-01T15:57:05;28.70;66.80
39371;DHT22;25099;51.946;4.838;2022-09-01T15:59:30;28.80;65.90
39371;DHT22;25099;51.946;4.838;2022-09-01T16:01:56;28.90;66.60
39371;DHT22;25099;51.946;4.838;2022-09-01T16:04:22;28.90;66.30
39371;DHT22;25099;51.946;4.838;2022-09-01T16:06:48;28.80;65.40
39371;DHT22;25099;51.946;4.838;2022-09-01T16:09:16;28.90;66.20
39371;DHT22;25099;51.946;4.838;2022-09-01T16:11:43;28.90;66.60
39371;DHT22;25099;51.946;4.838;2022-09-01T16:14:09;28.90;66.70
39371;DHT22;25099;51.946;4.838;2022-09-01T16:24:54;28.90;65.20
39371;DHT22;25099;51.946;4.838;2022-09-01T16:27:28;28.90;64.90
39371;DHT22;25099;51.946;4.838;2022-09-01T16:30:02;28.90;63.80
39371;DHT22;25099;51.946;4.838;2022-09-01T16:32:28;29.10;62.70
39371;DHT22;25099;51.946;4.838;2022-09-01T16:34:56;29.10;62.90
39371;DHT22;25099;51.946;4.838;2022-09-01T16:43:00;29.10;62.80
39371;DHT22;25099;51.946;4.838;2022-09-01T16:45:39;29.10;62.30
39371;DHT22;25099;51.946;4.838;2022-09-01T16:50:56;29.00;63.00
39371;DHT22;25099;51.946;4.838;2022-09-01T16:53:37;28.90;64.00
39371;DHT22;25099;51.946;4.838;2022-09-01T16:56:24;28.80;63.10
39371;DHT22;25099;51.946;4.838;2022-09-01T16:59:04;28.60;63.80
39371;DHT22;25099;51.946;4.838;2022-09-01T17:01:34;28.30;64.30
39371;DHT22;25099;51.946;4.838;2022-09-01T17:04:43;28.10;64.90